Terminal Aerodrome Forecast
Issued by NWS Twin Cities, MN

Home | Current Version | Previous Version | Text Only | Print | Product List | Glossary On
Versions: 1 2 3 4 5 6 7 8 9 10 11 12 13 14 15 16 17 18 19 20 21 22 23 24 25 26 27
000
FTUS43 KMPX 102013 AAA
TAFMSP
TAF AMD
KMSP 102013Z 1020/1124 15003KT 1 1/2SM -SN SCT015 OVC030
     FM110100 10007KT 2SM -SN SCT013 OVC025
      TEMPO 1101/1104 1SM -SN SCT007 OVC013
     FM110900 08009KT 3/4SM -SN BKN008 OVC015
     FM111500 10009KT 2SM -SN SCT007 OVC015
     FM112100 31005KT 4SM -SN BKN015 OVC030=

USA.gov is the U.S. government's official web portal to all federal, state and local government web resources and services.